Time;durP1;ratioP1;P1;durP2;ratioP2;P2;SDS_P1;SDS_P2;PMS_P1;PMS_P2;Temp;Humidity;BMP_temperature;BMP_pressure;BME280_temperature;BME280_humidity;BME280_pressure;Samples;Min_cycle;Max_cycle;Signal;HPM_P1;HPM_P2
2022/05/21 00:01:03;;;;;;;4.37;2.73;;;17.00;99.90;;;;;;8336830;28;20324;-80
2022/05/21 00:05:04;;;;;;;4.60;4.20;;;17.00;99.90;;;;;;8325085;28;20245;-80
2022/05/21 00:09:05;;;;;;;4.33;3.93;;;17.00;99.90;;;;;;8325940;28;20202;-79
2022/05/21 00:13:07;;;;;;;5.13;3.57;;;17.10;99.90;;;;;;8326748;28;20186;-78
2022/05/21 00:17:09;;;;;;;4.90;3.80;;;17.20;99.90;;;;;;8317345;28;20204;-82
2022/05/21 00:21:12;;;;;;;4.47;3.90;;;17.30;99.90;;;;;;8333462;28;20190;-79
2022/05/21 00:25:13;;;;;;;3.63;3.30;;;17.40;99.90;;;;;;8326804;28;20186;-78
2022/05/21 00:29:14;;;;;;;2.80;2.60;;;17.40;99.90;;;;;;8334294;28;20217;-79
2022/05/21 00:33:16;;;;;;;3.97;3.30;;;17.30;99.90;;;;;;8327988;28;20269;-79
2022/05/21 00:37:16;;;;;;;4.80;2.47;;;17.30;99.90;;;;;;8333716;28;20187;-80
2022/05/21 00:41:18;;;;;;;2.43;2.23;;;17.20;99.90;;;;;;8339289;28;20264;-79
2022/05/21 00:45:19;;;;;;;5.70;2.20;;;17.20;99.90;;;;;;8326738;28;20186;-80
2022/05/21 00:49:28;;;;;;;2.10;1.80;;;17.30;99.90;;;;;;8327968;28;20281;-80
2022/05/21 00:53:29;;;;;;;2.80;2.33;;;17.50;99.90;;;;;;8323192;28;20192;-79
2022/05/21 00:57:37;;;;;;;7.63;2.80;;;17.60;99.90;;;;;;8327626;28;20174;-79
2022/05/21 01:01:42;;;;;;;2.30;2.10;;;17.80;99.90;;;;;;8342626;28;20185;-79
2022/05/21 01:05:46;;;;;;;3.13;2.27;;;17.90;99.90;;;;;;8331605;28;20178;-79
2022/05/21 01:09:54;;;;;;;3.03;2.33;;;17.80;99.90;;;;;;8335646;28;20202;-80
2022/05/21 01:13:55;;;;;;;3.47;2.30;;;17.80;99.90;;;;;;8344466;28;20179;-81
2022/05/21 01:17:56;;;;;;;2.83;2.57;;;17.80;99.90;;;;;;8331067;28;20314;-81
2022/05/21 01:21:58;;;;;;;4.07;2.50;;;17.80;99.90;;;;;;8329788;28;20189;-80
2022/05/21 01:26:03;;;;;;;4.37;2.57;;;17.80;99.90;;;;;;8344115;28;20188;-80
2022/05/21 01:30:07;;;;;;;5.00;3.30;;;17.80;99.90;;;;;;8326703;28;20216;-78
2022/05/21 01:34:08;;;;;;;3.20;2.87;;;17.80;99.90;;;;;;8327010;28;20289;-80
2022/05/21 01:38:10;;;;;;;4.50;3.00;;;17.70;99.90;;;;;;8334544;28;20181;-79
2022/05/21 01:42:11;;;;;;;7.10;3.37;;;17.70;99.90;;;;;;8343662;28;20198;-79
2022/05/21 01:46:12;;;;;;;5.23;3.10;;;17.60;99.90;;;;;;8328418;28;20189;-81
2022/05/21 01:50:13;;;;;;;3.60;3.30;;;17.50;99.90;;;;;;8323128;28;20294;-79
2022/05/21 01:54:14;;;;;;;4.90;3.37;;;17.40;99.90;;;;;;8330639;28;20182;-79
2022/05/21 01:58:16;;;;;;;3.47;3.17;;;17.40;99.90;;;;;;8320769;28;20197;-79
2022/05/21 02:02:16;;;;;;;3.10;2.80;;;17.40;99.90;;;;;;8325753;28;20506;-80
2022/05/21 02:06:17;;;;;;;4.33;2.83;;;17.30;99.90;;;;;;8321846;28;20240;-81
2022/05/21 02:10:18;;;;;;;2.43;2.23;;;17.40;99.90;;;;;;8333760;28;20220;-79
2022/05/21 02:14:19;;;;;;;2.60;2.13;;;17.30;1.00;;;;;;8326170;28;20182;-79
2022/05/21 02:18:20;;;;;;;4.03;1.60;;;17.10;99.90;;;;;;8333007;28;20194;-80
2022/05/21 02:22:21;;;;;;;2.30;1.07;;;17.00;1.00;;;;;;8327942;28;20201;-79
2022/05/21 02:26:22;;;;;;;2.13;1.10;;;16.80;99.90;;;;;;8318753;28;20218;-79
2022/05/21 02:30:23;;;;;;;2.20;1.10;;;16.60;1.00;;;;;;8321113;28;20222;-79
2022/05/21 02:34:24;;;;;;;3.80;1.13;;;16.50;99.90;;;;;;8324265;28;20273;-79
2022/05/21 02:42:45;;;;;;;2.20;1.10;;;16.20;99.90;;;;;;8343735;28;20193;-80
2022/05/21 02:46:47;;;;;;;3.93;1.00;;;16.00;99.90;;;;;;8329358;28;20189;-80
2022/05/21 02:50:47;;;;;;;0.70;0.70;;;15.80;99.90;;;;;;8328042;28;20491;-81
2022/05/21 02:54:49;;;;;;;2.97;0.80;;;15.70;17.50;;;;;;8339306;28;20197;-82
2022/05/21 02:58:50;;;;;;;2.17;0.70;;;15.70;99.90;;;;;;8323991;28;20200;-80
2022/05/21 03:02:50;;;;;;;0.93;0.87;;;15.70;99.90;;;;;;8325085;28;20177;-80
2022/05/21 03:06:52;;;;;;;1.53;0.70;;;15.60;99.90;;;;;;8343221;28;20190;-81
2022/05/21 03:10:56;;;;;;;0.73;0.70;;;15.50;99.90;;;;;;8341185;28;20230;-79
2022/05/21 03:14:57;;;;;;;2.50;0.93;;;15.30;99.90;;;;;;8320379;28;20189;-77
2022/05/21 03:18:58;;;;;;;1.80;0.70;;;15.30;77.30;;;;;;8338669;28;20296;-74
2022/05/21 03:22:59;;;;;;;4.67;0.63;;;15.30;99.90;;;;;;8323214;28;20496;-74
2022/05/21 03:27:00;;;;;;;0.80;0.57;;;15.20;99.90;;;;;;8322409;28;20213;-76
2022/05/21 03:31:02;;;;;;;0.90;0.60;;;15.20;99.90;;;;;;8340325;28;20224;-77
2022/05/21 03:35:03;;;;;;;0.87;0.60;;;15.20;99.90;;;;;;8320491;28;20189;-78
2022/05/21 03:39:05;;;;;;;2.00;0.60;;;15.10;99.90;;;;;;8317872;28;20216;-80
2022/05/21 03:43:07;;;;;;;0.93;0.47;;;15.00;99.90;;;;;;8321866;28;20201;-77
2022/05/21 03:47:10;;;;;;;0.87;0.40;;;15.60;99.90;;;;;;8343003;28;20214;-79
2022/05/21 03:51:11;;;;;;;0.80;0.50;;;16.20;99.90;;;;;;8323980;28;20210;-75
2022/05/21 03:55:13;;;;;;;2.57;0.60;;;16.60;1.00;;;;;;8345441;28;20181;-75
2022/05/21 03:59:14;;;;;;;0.73;0.50;;;16.60;1.00;;;;;;8338353;28;20247;-78
2022/05/21 04:03:15;;;;;;;1.20;0.70;;;16.90;99.90;;;;;;8328623;28;20194;-77
2022/05/21 04:07:15;;;;;;;0.60;0.37;;;17.10;99.90;;;;;;8327454;28;20241;-75
2022/05/21 04:11:16;;;;;;;0.50;0.33;;;17.20;99.90;;;;;;8322645;28;20210;-78
2022/05/21 04:15:17;;;;;;;0.70;0.40;;;16.90;99.90;;;;;;8333292;28;20202;-77
2022/05/21 04:19:18;;;;;;;1.50;0.53;;;16.10;99.90;;;;;;8331305;28;20257;-75
2022/05/21 04:23:19;;;;;;;3.03;0.63;;;16.20;99.90;;;;;;8336295;28;20214;-80
2022/05/21 04:27:20;;;;;;;0.90;0.60;;;15.90;99.90;;;;;;8328587;28;20206;-80
2022/05/21 04:31:21;;;;;;;2.10;0.50;;;15.50;99.90;;;;;;8327475;28;20210;-78
2022/05/21 04:35:22;;;;;;;1.00;0.70;;;15.70;99.90;;;;;;8333458;28;20186;-75
2022/05/21 04:39:23;;;;;;;2.93;0.70;;;16.00;99.90;;;;;;8325586;28;20724;-78
2022/05/21 04:43:24;;;;;;;2.40;0.70;;;16.00;1.00;;;;;;8331751;28;20186;-80
2022/05/21 04:47:28;;;;;;;1.80;0.60;;;15.80;1.00;;;;;;8322879;28;20189;-77
2022/05/21 04:51:31;;;;;;;1.10;0.63;;;15.80;1.00;;;;;;8328422;28;20213;-75
2022/05/21 04:55:33;;;;;;;0.63;0.47;;;16.20;1.00;;;;;;8325513;28;20189;-74
2022/05/21 04:59:34;;;;;;;0.93;0.70;;;16.40;1.00;;;;;;8329502;28;20198;-77
2022/05/21 05:03:35;;;;;;;2.20;0.40;;;16.20;1.00;;;;;;8333315;28;20186;-77
2022/05/21 05:07:38;;;;;;;1.03;0.50;;;16.00;99.90;;;;;;8334670;28;20197;-75
2022/05/21 05:11:39;;;;;;;0.97;0.53;;;16.30;1.00;;;;;;8329194;28;20210;-75
2022/05/21 05:15:43;;;;;;;2.33;0.70;;;16.20;99.90;;;;;;8339862;28;20213;-78
2022/05/21 05:19:45;;;;;;;2.67;0.70;;;15.70;79.60;;;;;;8317632;28;20182;-76
2022/05/21 05:23:46;;;;;;;0.93;0.53;;;15.40;1.00;;;;;;8330640;28;20268;-75
2022/05/21 05:27:48;;;;;;;1.10;0.73;;;15.40;1.00;;;;;;8332565;28;20206;-77
2022/05/21 05:31:49;;;;;;;1.17;0.53;;;15.60;99.90;;;;;;8337643;28;20434;-75
2022/05/21 05:35:54;;;;;;;1.73;0.60;;;15.70;93.00;;;;;;8330469;28;20270;-80
2022/05/21 05:39:58;;;;;;;0.70;0.70;;;15.60;1.00;;;;;;8331749;28;20205;-75
2022/05/21 05:44:00;;;;;;;1.73;0.70;;;15.50;88.50;;;;;;8325567;28;20204;-75
2022/05/21 05:48:01;;;;;;;1.17;0.80;;;15.40;99.90;;;;;;8325690;28;20193;-78
2022/05/21 05:52:02;;;;;;;0.70;0.70;;;15.30;99.90;;;;;;8345513;28;20218;-75
2022/05/21 05:56:06;;;;;;;3.37;0.70;;;15.10;1.00;;;;;;8329457;28;20192;-75
2022/05/21 06:00:08;;;;;;;1.00;0.90;;;15.20;1.00;;;;;;8326627;28;20193;-78
2022/05/21 06:04:09;;;;;;;0.60;0.50;;;15.30;99.90;;;;;;8329743;28;20193;-76
2022/05/21 06:08:10;;;;;;;0.77;0.60;;;15.40;1.00;;;;;;8328056;28;20186;-74
2022/05/21 06:12:12;;;;;;;1.50;0.70;;;15.40;99.90;;;;;;8339932;28;20574;-76
2022/05/21 06:16:15;;;;;;;1.03;0.40;;;15.70;99.90;;;;;;8316461;28;20185;-75
2022/05/21 06:20:17;;;;;;;1.80;0.70;;;15.70;99.90;;;;;;8327756;28;20186;-74
2022/05/21 06:24:18;;;;;;;0.80;0.40;;;15.80;99.90;;;;;;8342193;28;20465;-75
2022/05/21 06:28:19;;;;;;;0.70;0.70;;;15.60;99.90;;;;;;8346147;28;20304;-74
2022/05/21 06:32:20;;;;;;;1.23;0.47;;;15.60;99.90;;;;;;8320344;28;20185;-76
2022/05/21 06:36:22;;;;;;;2.93;0.80;;;15.80;1.00;;;;;;8327287;28;20177;-82
2022/05/21 06:40:23;;;;;;;2.03;0.80;;;16.20;34.90;;;;;;8324140;28;20213;-74
2022/05/21 06:44:24;;;;;;;2.53;0.70;;;16.10;1.00;;;;;;8320411;28;20186;-79
2022/05/21 06:48:25;;;;;;;1.50;0.60;;;15.80;1.00;;;;;;8332467;28;20186;-77
2022/05/21 06:52:30;;;;;;;1.87;0.57;;;15.80;1.00;;;;;;8307864;28;20217;-77
2022/05/21 06:56:31;;;;;;;1.00;0.43;;;16.10;1.00;;;;;;8325425;28;20209;-78
2022/05/21 07:00:32;;;;;;;1.00;0.40;;;16.10;99.90;;;;;;8329291;28;20179;-77
2022/05/21 07:08:53;;;;;;;0.90;0.50;;;16.20;99.90;;;;;;8343047;28;20255;-79
2022/05/21 07:12:54;;;;;;;1.07;0.90;;;16.40;99.90;;;;;;8340461;28;20193;-75
2022/05/21 07:16:57;;;;;;;1.00;0.80;;;16.40;99.90;;;;;;8321819;28;20325;-79
2022/05/21 07:20:58;;;;;;;1.00;0.47;;;16.20;99.90;;;;;;8325280;28;20182;-79
2022/05/21 07:25:00;;;;;;;1.43;0.57;;;16.20;99.90;;;;;;8322742;28;20240;-75
2022/05/21 07:29:01;;;;;;;1.53;0.30;;;15.70;99.90;;;;;;8326770;28;20276;-75
2022/05/21 07:33:04;;;;;;;2.70;0.80;;;15.70;99.90;;;;;;8340401;28;20501;-75
2022/05/21 07:37:05;;;;;;;1.20;0.50;;;16.00;99.90;;;;;;8324633;28;20371;-78
2022/05/21 07:41:07;;;;;;;5.13;0.50;;;16.40;99.90;;;;;;8339688;28;20233;-75
2022/05/21 07:45:11;;;;;;;2.00;0.60;;;16.40;1.00;;;;;;8325851;28;20190;-75
2022/05/21 07:49:12;;;;;;;0.97;0.53;;;15.90;99.90;;;;;;8340399;28;20216;-79
2022/05/21 07:53:19;;;;;;;1.00;0.77;;;15.80;1.00;;;;;;8314668;28;20210;-79
2022/05/21 07:57:20;;;;;;;2.37;0.60;;;16.10;1.00;;;;;;8331744;28;20181;-74
2022/05/21 08:01:24;;;;;;;1.77;0.50;;;16.40;99.90;;;;;;8333077;28;20185;-76
2022/05/21 08:05:25;;;;;;;0.80;0.50;;;16.40;99.90;;;;;;8325688;28;20190;-75
2022/05/21 08:09:26;;;;;;;3.03;0.60;;;16.20;99.90;;;;;;8341085;28;20206;-75
2022/05/21 08:13:28;;;;;;;1.80;0.50;;;16.40;99.90;;;;;;8341720;28;20248;-76
2022/05/21 08:17:29;;;;;;;1.90;0.70;;;16.80;1.00;;;;;;8321291;28;20179;-76
2022/05/21 08:21:30;;;;;;;1.33;0.40;;;16.90;1.00;;;;;;8336325;28;20193;-78
2022/05/21 08:29:50;;;;;;;1.63;0.40;;;16.30;73.70;;;;;;8338635;28;20336;-79
2022/05/21 08:33:52;;;;;;;1.63;0.70;;;16.20;1.00;;;;;;8316694;28;20201;-79
2022/05/21 08:37:53;;;;;;;3.03;0.87;;;16.60;99.90;;;;;;8321411;28;20182;-78
2022/05/21 08:41:57;;;;;;;0.87;0.40;;;16.90;20.60;;;;;;8348772;28;20216;-77
2022/05/21 08:46:40;;;;;;;1.03;0.60;;;16.70;1.00;;;;;;8335665;28;20281;-75
2022/05/21 08:50:47;;;;;;;3.93;0.50;;;16.80;1.00;;;;;;8347046;28;20215;-76
2022/05/21 08:54:50;;;;;;;3.20;0.70;;;17.30;1.00;;;;;;8328458;28;20190;-77
2022/05/21 08:59:05;;;;;;;9.67;0.93;;;17.60;99.90;;;;;;8331259;28;20182;-77
2022/05/21 09:03:10;;;;;;;4.20;0.73;;;17.20;99.90;;;;;;8317392;28;20190;-79
2022/05/21 09:07:20;;;;;;;1.13;0.57;;;17.20;99.90;;;;;;8335041;28;20258;-75
2022/05/21 09:11:40;;;;;;;1.00;0.50;;;16.60;99.90;;;;;;8331534;28;20217;-75
2022/05/21 09:20:06;;;;;;;1.13;0.87;;;16.50;1.00;;;;;;8339808;28;20303;-77
2022/05/21 09:24:10;;;;;;;2.97;1.10;;;16.80;1.00;;;;;;8321403;28;20518;-74
2022/05/21 09:28:20;;;;;;;2.47;0.90;;;16.80;1.00;;;;;;8328119;28;20213;-78
2022/05/21 09:32:30;;;;;;;1.67;0.57;;;16.70;99.90;;;;;;8339659;28;20183;-77
2022/05/21 09:36:35;;;;;;;4.27;0.70;;;16.60;1.00;;;;;;8335975;28;20181;-75
2022/05/21 09:40:38;;;;;;;3.70;0.70;;;16.60;1.00;;;;;;8327008;28;20214;-76
2022/05/21 09:49:29;;;;;;;0.70;0.50;;;17.50;99.90;;;;;;8345582;28;20209;-77
2022/05/21 09:53:36;;;;;;;7.73;0.93;;;17.50;99.90;;;;;;8338293;28;20212;-79
2022/05/21 09:57:43;;;;;;;1.10;0.70;;;17.30;99.90;;;;;;8327482;28;20183;-79
2022/05/21 10:01:53;;;;;;;1.07;0.47;;;17.40;99.90;;;;;;8320907;28;20236;-79
2022/05/21 10:05:54;;;;;;;1.77;0.60;;;17.80;99.90;;;;;;8323916;28;20191;-80
2022/05/21 10:14:40;;;;;;;1.90;0.70;;;18.30;99.90;;;;;;8340142;28;20197;-77
2022/05/21 10:18:57;;;;;;;3.37;0.60;;;18.30;99.90;;;;;;8323510;28;20198;-75
2022/05/21 10:23:19;;;;;;;1.47;0.50;;;18.10;99.90;;;;;;8328440;28;20186;-75
2022/05/21 10:27:44;;;;;;;4.73;0.40;;;17.70;99.90;;;;;;8342553;28;20212;-77
2022/05/21 10:31:50;;;;;;;2.83;0.70;;;18.10;99.90;;;;;;8335585;28;20312;-75
2022/05/21 10:35:58;;;;;;;2.20;0.50;;;17.80;99.90;;;;;;8329111;28;20179;-75
2022/05/21 10:40:07;;;;;;;1.33;0.90;;;17.90;99.90;;;;;;8342583;28;20202;-80
2022/05/21 10:44:41;;;;;;;3.53;0.80;;;18.40;99.90;;;;;;8330062;28;20508;-78
2022/05/21 10:49:03;;;;;;;4.03;0.53;;;18.20;99.90;;;;;;8339746;28;20202;-74
2022/05/21 10:53:41;;;;;;;4.40;0.50;;;18.30;99.90;;;;;;8322839;28;20216;-79
2022/05/21 10:58:04;;;;;;;1.33;0.50;;;18.60;99.90;;;;;;8339711;28;20236;-77
2022/05/21 11:02:35;;;;;;;1.93;0.50;;;18.80;99.90;;;;;;8339366;28;20312;-79
2022/05/21 11:06:56;;;;;;;5.90;0.70;;;18.70;99.90;;;;;;8323763;28;20182;-75
2022/05/21 11:11:32;;;;;;;0.57;0.30;;;18.60;99.90;;;;;;8317687;28;20212;-75
2022/05/21 11:15:43;;;;;;;2.00;0.60;;;18.30;99.90;;;;;;8281689;28;20202;-77
2022/05/21 11:20:17;;;;;;;3.97;0.80;;;18.80;99.90;;;;;;8320669;28;20248;-78
2022/05/21 11:24:20;;;;;;;2.73;0.90;;;18.50;99.90;;;;;;8317641;28;20190;-79
2022/05/21 11:28:43;;;;;;;4.90;0.40;;;18.40;99.90;;;;;;8325157;28;20217;-78
2022/05/21 11:37:24;;;;;;;0.63;0.43;;;18.80;99.90;;;;;;8341078;28;20238;-80
2022/05/21 11:42:08;;;;;;;3.27;0.47;;;18.40;99.90;;;;;;8343701;28;20233;-75
2022/05/21 11:46:11;;;;;;;1.33;0.53;;;18.60;99.90;;;;;;8316938;28;20260;-75
2022/05/21 11:50:14;;;;;;;1.57;0.50;;;18.40;99.90;;;;;;8324059;28;20217;-75
2022/05/21 11:54:50;;;;;;;2.23;0.67;;;18.70;99.90;;;;;;8322221;28;20221;-79
2022/05/21 11:58:59;;;;;;;1.87;0.57;;;19.00;99.90;;;;;;8310335;28;20202;-74
2022/05/21 12:03:02;;;;;;;2.23;0.50;;;19.40;99.90;;;;;;8337427;28;20261;-73
2022/05/21 12:07:06;;;;;;;2.20;0.53;;;19.50;99.90;;;;;;8319052;28;20178;-76
2022/05/21 12:11:36;;;;;;;1.47;0.60;;;19.10;99.90;;;;;;8324161;28;20214;-75
2022/05/21 12:15:41;;;;;;;1.10;0.47;;;18.80;99.90;;;;;;8342385;28;20206;-75
2022/05/21 12:19:52;;;;;;;1.20;0.40;;;18.90;99.90;;;;;;8327884;28;20190;-80
2022/05/21 12:23:58;;;;;;;2.93;0.60;;;19.40;99.90;;;;;;8347209;28;20193;-79
2022/05/21 12:28:02;;;;;;;1.43;0.40;;;19.80;99.90;;;;;;8332525;28;20205;-79
2022/05/21 12:32:03;;;;;;;3.47;0.60;;;20.10;99.90;;;;;;8336595;28;20236;-77
2022/05/21 12:36:52;;;;;;;2.23;1.13;;;20.30;99.90;;;;;;8320941;28;20194;-75
2022/05/21 12:41:14;;;;;;;2.77;0.60;;;20.10;99.90;;;;;;8321192;28;20217;-79
2022/05/21 12:45:47;;;;;;;3.27;0.70;;;19.90;93.70;;;;;;8341439;28;20196;-75
2022/05/21 12:49:50;;;;;;;1.07;0.50;;;19.50;99.90;;;;;;8323293;28;20213;-75
2022/05/21 12:53:52;;;;;;;1.33;0.37;;;19.10;99.90;;;;;;8324999;28;20305;-74
2022/05/21 12:57:56;;;;;;;2.53;0.47;;;19.10;99.90;;;;;;8348908;28;20186;-78
2022/05/21 13:02:01;;;;;;;1.40;0.50;;;19.50;99.90;;;;;;8329021;28;20193;-76
2022/05/21 13:06:08;;;;;;;5.03;0.60;;;19.80;99.90;;;;;;8339571;28;20197;-75
2022/05/21 13:10:34;;;;;;;4.70;0.70;;;20.10;99.90;;;;;;8322570;28;20202;-75
2022/05/21 13:14:38;;;;;;;2.90;0.60;;;20.00;99.90;;;;;;8336683;28;20269;-75
2022/05/21 13:19:16;;;;;;;0.97;0.50;;;19.90;99.90;;;;;;8328380;28;20183;-75
2022/05/21 13:23:39;;;;;;;1.27;0.53;;;19.30;99.90;;;;;;8334307;28;20186;-75
2022/05/21 13:27:46;;;;;;;1.07;0.50;;;19.00;99.90;;;;;;8322775;28;20200;-79
2022/05/21 13:31:49;;;;;;;1.23;0.50;;;19.40;99.90;;;;;;8326663;28;20237;-75
2022/05/21 13:35:56;;;;;;;1.87;0.90;;;19.80;99.90;;;;;;8321753;28;20186;-75
2022/05/21 13:40:07;;;;;;;2.90;0.70;;;19.40;99.90;;;;;;8337812;28;20301;-77
2022/05/21 13:44:15;;;;;;;2.93;0.70;;;19.40;99.90;;;;;;8325209;28;20214;-79
2022/05/21 13:48:21;;;;;;;2.13;0.70;;;19.40;99.90;;;;;;8329166;28;20187;-80
2022/05/21 13:52:25;;;;;;;1.47;0.50;;;19.10;99.90;;;;;;8332545;28;20213;-77
2022/05/21 13:56:39;;;;;;;2.00;0.80;;;18.90;99.90;;;;;;8330076;28;20190;-79
2022/05/21 14:00:40;;;;;;;4.17;0.90;;;18.60;99.90;;;;;;8320184;28;20238;-75
2022/05/21 14:04:41;;;;;;;1.20;0.60;;;18.20;99.90;;;;;;8333758;28;20208;-77
2022/05/21 14:09:00;;;;;;;1.33;0.90;;;17.90;99.90;;;;;;8330316;28;20182;-79
2022/05/21 14:13:03;;;;;;;1.17;0.70;;;17.70;99.90;;;;;;8326704;28;20194;-78
2022/05/21 14:17:24;;;;;;;2.00;0.90;;;17.70;99.90;;;;;;8329633;28;20186;-75
2022/05/21 14:21:26;;;;;;;4.47;0.90;;;17.50;99.90;;;;;;8343899;28;20635;-74
2022/05/21 14:25:33;;;;;;;1.73;0.90;;;17.40;99.90;;;;;;8325947;28;20236;-74
2022/05/21 14:29:41;;;;;;;1.57;0.67;;;17.40;99.90;;;;;;8329887;28;20217;-76
2022/05/21 14:33:56;;;;;;;4.67;0.97;;;17.50;99.90;;;;;;8312843;28;20206;-75
2022/05/21 14:37:59;;;;;;;2.43;0.87;;;17.60;99.90;;;;;;8344150;28;20174;-75
2022/05/21 14:42:01;;;;;;;3.30;0.83;;;18.10;99.90;;;;;;8322600;28;20209;-76
2022/05/21 14:46:03;;;;;;;1.63;0.83;;;18.30;99.90;;;;;;8321404;28;20204;-74
2022/05/21 14:54:23;;;;;;;2.70;1.00;;;18.00;99.90;;;;;;8344044;28;20299;-78
2022/05/21 14:58:25;;;;;;;2.13;1.00;;;18.00;99.90;;;;;;8326269;28;20190;-75
2022/05/21 15:02:26;;;;;;;1.33;0.80;;;18.40;99.90;;;;;;8325915;28;20186;-76
2022/05/21 15:06:30;;;;;;;1.70;0.97;;;18.60;99.90;;;;;;8320997;28;20222;-79
2022/05/21 15:10:31;;;;;;;2.03;0.80;;;18.70;99.90;;;;;;8333348;28;20219;-78
2022/05/21 15:14:37;;;;;;;2.60;0.80;;;18.80;99.90;;;;;;8328551;28;20182;-79
2022/05/21 15:18:38;;;;;;;2.20;0.90;;;18.70;99.90;;;;;;8325932;28;20210;-76
2022/05/21 15:22:41;;;;;;;3.50;1.00;;;18.70;99.90;;;;;;8337770;28;20178;-76
2022/05/21 15:26:42;;;;;;;1.73;0.80;;;18.60;99.90;;;;;;8330330;28;20182;-74
2022/05/21 15:30:43;;;;;;;5.50;1.03;;;18.60;99.90;;;;;;8322191;28;20291;-77
2022/05/21 15:34:44;;;;;;;2.57;1.03;;;18.70;99.90;;;;;;8329799;28;20191;-78
2022/05/21 15:38:47;;;;;;;2.90;0.97;;;18.60;99.90;;;;;;8324889;28;20236;-79
2022/05/21 15:42:48;;;;;;;1.67;0.90;;;18.60;99.90;;;;;;8332544;28;20203;-79
2022/05/21 15:46:49;;;;;;;2.20;0.97;;;18.40;99.90;;;;;;8329273;28;20243;-75
2022/05/21 15:50:50;;;;;;;6.93;1.17;;;18.50;99.90;;;;;;8327257;28;20209;-79
2022/05/21 15:54:53;;;;;;;2.13;0.80;;;18.40;99.90;;;;;;8329924;28;20182;-77
2022/05/21 15:58:53;;;;;;;1.37;0.97;;;18.20;99.90;;;;;;8330656;28;20662;-81
2022/05/21 16:02:55;;;;;;;3.37;1.07;;;18.20;99.90;;;;;;8337010;28;20185;-75
2022/05/21 16:06:55;;;;;;;2.20;0.87;;;18.30;99.90;;;;;;8327420;28;20190;-77
2022/05/21 16:10:57;;;;;;;1.97;0.90;;;18.20;99.90;;;;;;8330721;28;20211;-74
2022/05/21 16:14:58;;;;;;;2.40;1.20;;;18.10;99.90;;;;;;8349163;28;20174;-76
2022/05/21 16:18:59;;;;;;;3.70;0.80;;;17.90;99.90;;;;;;8341663;28;20190;-79
2022/05/21 16:23:00;;;;;;;3.10;1.10;;;17.70;99.90;;;;;;8334588;28;20248;-79
2022/05/21 16:27:20;;;;;;;2.20;1.00;;;17.70;99.90;;;;;;8330109;28;20205;-75
2022/05/21 16:31:21;;;;;;;2.03;1.00;;;17.70;1.00;;;;;;8335225;28;20214;-75
2022/05/21 16:35:22;;;;;;;2.23;1.03;;;17.70;1.00;;;;;;8345200;28;20634;-75
2022/05/21 16:39:23;;;;;;;1.50;0.90;;;17.60;99.90;;;;;;8341870;28;20228;-74
2022/05/21 16:43:23;;;;;;;1.47;0.80;;;17.50;99.90;;;;;;8349113;28;20183;-77
2022/05/21 16:47:24;;;;;;;1.97;1.30;;;17.40;99.90;;;;;;8327814;28;20243;-77
2022/05/21 16:51:25;;;;;;;2.20;1.10;;;17.30;1.00;;;;;;8333965;28;20221;-79
2022/05/21 16:55:26;;;;;;;4.80;1.20;;;17.20;1.00;;;;;;8326971;28;20237;-75
2022/05/21 16:59:27;;;;;;;6.60;2.00;;;16.40;99.90;;;;;;8334492;28;20183;-78
2022/05/21 17:03:28;;;;;;;7.23;2.20;;;14.60;1.00;;;;;;8332282;28;20187;-77
2022/05/21 17:07:29;;;;;;;4.03;2.03;;;13.50;1.00;;;;;;8323743;28;20194;-78
2022/05/21 17:11:30;;;;;;;4.77;1.93;;;13.10;99.90;;;;;;8325970;28;20204;-75
2022/05/21 17:15:32;;;;;;;3.30;1.80;;;13.00;99.90;;;;;;8326022;28;20181;-76
2022/05/21 17:19:34;;;;;;;3.93;1.90;;;13.00;99.90;;;;;;8331770;28;20186;-81
2022/05/21 17:23:35;;;;;;;2.90;1.90;;;13.40;1.00;;;;;;8341049;28;20182;-80
2022/05/21 17:31:57;;;;;;;3.33;1.80;;;13.90;1.00;;;;;;8341644;28;20814;-76
2022/05/21 17:36:00;;;;;;;1.80;1.70;;;13.80;1.00;;;;;;8329867;28;20239;-80
2022/05/21 17:40:02;;;;;;;3.30;1.80;;;13.70;1.00;;;;;;8344281;28;20205;-75
2022/05/21 17:44:04;;;;;;;3.90;2.00;;;13.60;1.00;;;;;;8322956;28;20252;-76
2022/05/21 17:48:05;;;;;;;5.60;2.30;;;13.40;12.10;;;;;;8343694;28;20186;-77
2022/05/21 17:52:06;;;;;;;3.17;2.80;;;13.10;99.90;;;;;;8330925;28;20250;-77
2022/05/21 17:56:09;;;;;;;7.60;2.97;;;12.80;99.90;;;;;;8333831;28;20187;-78
2022/05/21 18:00:10;;;;;;;5.70;3.10;;;12.60;99.90;;;;;;8322856;28;20565;-76
2022/05/21 18:04:11;;;;;;;2.50;2.10;;;12.70;99.90;;;;;;8321741;28;20184;-76
2022/05/21 18:08:13;;;;;;;3.77;2.30;;;13.00;99.90;;;;;;8328154;28;20275;-77
2022/05/21 18:12:14;;;;;;;3.20;2.23;;;13.10;1.00;;;;;;8332811;28;20267;-80
2022/05/21 18:20:34;;;;;;;2.23;1.97;;;13.00;99.90;;;;;;8350418;28;20216;-78
2022/05/21 18:24:35;;;;;;;3.47;2.20;;;12.90;1.00;;;;;;8336788;28;20216;-77
2022/05/21 18:28:36;;;;;;;2.47;2.17;;;12.70;1.00;;;;;;8326571;28;20215;-76
2022/05/21 18:32:37;;;;;;;3.37;2.57;;;12.60;99.90;;;;;;8329327;28;20216;-77
2022/05/21 18:36:40;;;;;;;2.90;2.30;;;12.50;99.90;;;;;;8314669;28;20193;-81
2022/05/21 18:40:41;;;;;;;3.37;2.60;;;12.50;99.90;;;;;;8330595;28;20223;-77
2022/05/21 18:44:43;;;;;;;4.43;2.60;;;12.40;99.90;;;;;;8321380;28;20303;-76
2022/05/21 18:48:44;;;;;;;3.17;2.60;;;12.30;99.90;;;;;;8323913;28;20189;-76
2022/05/21 18:52:44;;;;;;;3.03;2.73;;;12.20;99.90;;;;;;8340273;28;20220;-76
2022/05/21 18:56:45;;;;;;;5.07;2.77;;;12.10;99.90;;;;;;8322258;28;20194;-75
2022/05/21 19:00:50;;;;;;;3.70;2.67;;;12.10;99.90;;;;;;8319935;28;20197;-76
2022/05/21 19:04:52;;;;;;;2.80;2.50;;;12.00;99.90;;;;;;8328828;28;20274;-81
2022/05/21 19:08:53;;;;;;;2.87;2.50;;;11.90;99.90;;;;;;8323799;28;20192;-76
2022/05/21 19:12:54;;;;;;;3.00;2.57;;;11.90;99.90;;;;;;8331887;28;20180;-76
2022/05/21 19:16:55;;;;;;;2.73;2.23;;;11.80;99.90;;;;;;8316539;28;20208;-81
2022/05/21 19:20:57;;;;;;;3.67;2.90;;;11.70;99.90;;;;;;8328116;28;20312;-79
2022/05/21 19:24:58;;;;;;;4.13;2.97;;;11.70;99.90;;;;;;8323299;28;20187;-80
2022/05/21 19:28:58;;;;;;;4.83;2.97;;;11.70;99.90;;;;;;8336081;28;20203;-80
2022/05/21 19:33:00;;;;;;;8.47;3.17;;;11.80;99.90;;;;;;8331212;28;20180;-81
2022/05/21 19:37:04;;;;;;;6.30;4.17;;;11.90;99.90;;;;;;8325566;28;20266;-81
2022/05/21 19:45:35;;;;;;;6.83;3.70;;;12.00;99.90;;;;;;8321319;28;20291;-80
2022/05/21 19:49:37;;;;;;;6.90;3.80;;;12.00;99.90;;;;;;8321818;28;20211;-81
2022/05/21 19:53:39;;;;;;;5.87;3.67;;;12.10;99.90;;;;;;8325977;28;20209;-80
2022/05/21 19:57:40;;;;;;;4.20;3.30;;;12.00;99.90;;;;;;8334115;28;20187;-79
2022/05/21 20:01:41;;;;;;;4.07;3.20;;;12.10;99.90;;;;;;8331764;28;20190;-79
2022/05/21 20:05:43;;;;;;;5.60;2.80;;;12.10;99.90;;;;;;8302502;28;20193;-80
2022/05/21 20:09:44;;;;;;;5.13;3.40;;;11.90;99.90;;;;;;8322220;28;20203;-81
2022/05/21 20:13:45;;;;;;;4.23;3.00;;;11.80;99.90;;;;;;8323470;28;20346;-81
2022/05/21 20:17:46;;;;;;;4.57;3.27;;;11.70;99.90;;;;;;8313360;28;20188;-80
2022/05/21 20:21:48;;;;;;;6.43;3.27;;;11.70;99.90;;;;;;8323752;28;20191;-80
2022/05/21 20:25:49;;;;;;;5.77;3.30;;;11.70;99.90;;;;;;8323097;28;20337;-81
2022/05/21 20:29:50;;;;;;;5.40;3.40;;;11.70;99.90;;;;;;8327970;28;20226;-80
2022/05/21 20:33:52;;;;;;;4.10;2.77;;;11.70;99.90;;;;;;8324971;28;20247;-80
2022/05/21 20:37:53;;;;;;;5.50;3.13;;;11.60;99.90;;;;;;8339873;28;20185;-81
2022/05/21 20:41:54;;;;;;;3.50;2.70;;;11.60;99.90;;;;;;8332267;28;20212;-80
2022/05/21 20:45:55;;;;;;;4.40;3.03;;;11.60;99.90;;;;;;8336228;28;20220;-80
2022/05/21 20:49:56;;;;;;;3.63;3.03;;;11.50;99.90;;;;;;8335463;28;20218;-80
2022/05/21 20:53:58;;;;;;;4.80;3.17;;;11.40;99.90;;;;;;8332683;28;20186;-81
2022/05/21 20:57:59;;;;;;;4.33;3.53;;;11.40;99.90;;;;;;8334579;28;20179;-80
2022/05/21 21:02:05;;;;;;;4.43;2.93;;;11.50;99.90;;;;;;8349130;28;20184;-79
2022/05/21 21:06:08;;;;;;;4.57;3.00;;;11.60;99.90;;;;;;8328108;28;20265;-80
2022/05/21 21:10:11;;;;;;;4.47;3.17;;;11.70;99.90;;;;;;8331390;28;20302;-80
2022/05/21 21:14:12;;;;;;;5.20;2.67;;;11.70;1.00;;;;;;8347623;28;20256;-79
2022/05/21 21:18:13;;;;;;;6.23;2.80;;;11.80;99.90;;;;;;8328223;28;20276;-80
2022/05/21 21:22:14;;;;;;;6.73;2.93;;;11.80;99.90;;;;;;8325701;28;20340;-79
2022/05/21 21:26:14;;;;;;;3.30;2.23;;;11.70;99.90;;;;;;8336257;28;20181;-78
2022/05/21 21:30:19;;;;;;;4.20;2.40;;;11.60;99.90;;;;;;8329065;28;20214;-79
2022/05/21 21:34:20;;;;;;;3.50;2.70;;;11.50;99.90;;;;;;8322351;28;20184;-79
2022/05/21 21:38:21;;;;;;;5.10;2.97;;;11.30;30.30;;;;;;8329140;28;20201;-79
2022/05/21 21:42:22;;;;;;;6.17;2.80;;;11.30;99.90;;;;;;8329305;28;20187;-79
2022/05/21 21:46:24;;;;;;;4.27;2.30;;;11.30;99.90;;;;;;8327424;28;20190;-80
2022/05/21 21:50:25;;;;;;;4.53;2.83;;;11.30;99.90;;;;;;8324521;28;20261;-79
2022/05/21 21:54:26;;;;;;;4.57;2.80;;;11.30;1.00;;;;;;8332658;28;20224;-78
2022/05/21 22:02:46;;;;;;;4.20;2.60;;;11.30;1.00;;;;;;8340915;28;20206;-79
2022/05/21 22:06:52;;;;;;;4.67;3.23;;;11.30;99.90;;;;;;8319304;28;20186;-77